sensor_id;sensor_type;location;lat;lon;timestamp;pressure;altitude;pressure_sealevel;temperature;humidity
69980;BME280;57318;56.232;43.944;2023-03-14T00:01:23;99268.16;;;-5.60;79.04
69980;BME280;57318;56.232;43.944;2023-03-14T00:03:49;99272.50;;;-5.60;79.11
69980;BME280;57318;56.232;43.944;2023-03-14T00:06:16;99275.09;;;-5.62;79.20
69980;BME280;57318;56.232;43.944;2023-03-14T00:08:43;99269.09;;;-5.64;79.17
69980;BME280;57318;56.232;43.944;2023-03-14T00:11:11;99268.31;;;-5.69;78.94
69980;BME280;57318;56.232;43.944;2023-03-14T00:13:37;99284.72;;;-5.70;79.24
69980;BME280;57318;56.232;43.944;2023-03-14T00:16:09;99283.13;;;-5.77;79.23
69980;BME280;57318;56.232;43.944;2023-03-14T00:18:35;99288.31;;;-5.79;79.20
69980;BME280;57318;56.232;43.944;2023-03-14T00:21:02;99299.56;;;-5.82;79.80
69980;BME280;57318;56.232;43.944;2023-03-14T00:23:29;99299.63;;;-5.85;79.59
69980;BME280;57318;56.232;43.944;2023-03-14T00:26:10;99287.63;;;-5.90;79.65
69980;BME280;57318;56.232;43.944;2023-03-14T00:28:36;99300.63;;;-5.93;80.29
69980;BME280;57318;56.232;43.944;2023-03-14T00:31:03;99296.34;;;-5.96;80.47
69980;BME280;57318;56.232;43.944;2023-03-14T00:33:29;99300.72;;;-5.98;80.60
69980;BME280;57318;56.232;43.944;2023-03-14T00:36:00;99293.88;;;-6.02;80.39
69980;BME280;57318;56.232;43.944;2023-03-14T00:38:26;99288.75;;;-6.05;80.92
69980;BME280;57318;56.232;43.944;2023-03-14T00:40:52;99293.97;;;-6.08;81.11
69980;BME280;57318;56.232;43.944;2023-03-14T00:43:19;99290.56;;;-6.12;81.07
69980;BME280;57318;56.232;43.944;2023-03-14T00:45:50;99299.25;;;-6.14;81.08
69980;BME280;57318;56.232;43.944;2023-03-14T00:48:17;99307.91;;;-6.17;81.29
69980;BME280;57318;56.232;43.944;2023-03-14T00:50:43;99316.53;;;-6.18;81.46
69980;BME280;57318;56.232;43.944;2023-03-14T00:53:10;99310.50;;;-6.19;81.84
69980;BME280;57318;56.232;43.944;2023-03-14T00:55:37;99319.13;;;-6.20;82.12
69980;BME280;57318;56.232;43.944;2023-03-14T00:58:03;99327.69;;;-6.14;82.08
69980;BME280;57318;56.232;43.944;2023-03-14T01:00:28;99314.72;;;-6.11;81.93
69980;BME280;57318;56.232;43.944;2023-03-14T01:02:54;99328.53;;;-6.12;81.74
69980;BME280;57318;56.232;43.944;2023-03-14T01:05:22;99331.16;;;-6.15;81.69
69980;BME280;57318;56.232;43.944;2023-03-14T01:07:48;99328.59;;;-6.17;81.98
69980;BME280;57318;56.232;43.944;2023-03-14T01:10:14;99334.59;;;-6.17;82.35
69980;BME280;57318;56.232;43.944;2023-03-14T01:12:40;99335.47;;;-6.16;82.34
69980;BME280;57318;56.232;43.944;2023-03-14T01:15:06;99339.78;;;-6.17;82.21
69980;BME280;57318;56.232;43.944;2023-03-14T01:17:32;99338.88;;;-6.14;82.39
69980;BME280;57318;56.232;43.944;2023-03-14T01:19:59;99334.56;;;-6.13;82.08
69980;BME280;57318;56.232;43.944;2023-03-14T01:22:25;99326.88;;;-6.18;82.79
69980;BME280;57318;56.232;43.944;2023-03-14T01:24:50;99335.47;;;-6.14;82.58
69980;BME280;57318;56.232;43.944;2023-03-14T01:27:16;99347.47;;;-6.12;82.18
69980;BME280;57318;56.232;43.944;2023-03-14T01:29:42;99342.31;;;-6.13;82.30
69980;BME280;57318;56.232;43.944;2023-03-14T01:32:07;99344.88;;;-6.10;82.31
69980;BME280;57318;56.232;43.944;2023-03-14T01:34:33;99350.00;;;-6.07;82.14
69980;BME280;57318;56.232;43.944;2023-03-14T01:36:58;99345.59;;;-6.02;82.22
69980;BME280;57318;56.232;43.944;2023-03-14T01:39:24;99362.72;;;-5.93;82.06
69980;BME280;57318;56.232;43.944;2023-03-14T01:41:50;99352.31;;;-5.90;81.65
69980;BME280;57318;56.232;43.944;2023-03-14T01:44:15;99351.44;;;-5.89;81.55
69980;BME280;57318;56.232;43.944;2023-03-14T01:46:42;99352.31;;;-5.90;81.67
69980;BME280;57318;56.232;43.944;2023-03-14T01:49:20;99367.88;;;-5.93;81.53
69980;BME280;57318;56.232;43.944;2023-03-14T01:54:27;99373.19;;;-6.01;81.60
69980;BME280;57318;56.232;43.944;2023-03-14T01:57:16;99372.38;;;-6.03;81.97
69980;BME280;57318;56.232;43.944;2023-03-14T01:59:49;99388.75;;;-6.04;81.67
69980;BME280;57318;56.232;43.944;2023-03-14T02:02:17;99382.72;;;-6.03;81.51
69980;BME280;57318;56.232;43.944;2023-03-14T02:04:43;99397.41;;;-6.07;81.73
69980;BME280;57318;56.232;43.944;2023-03-14T02:07:16;99394.00;;;-6.10;81.64
69980;BME280;57318;56.232;43.944;2023-03-14T02:09:43;99393.19;;;-6.12;81.49
69980;BME280;57318;56.232;43.944;2023-03-14T02:12:09;99395.84;;;-6.17;81.63
69980;BME280;57318;56.232;43.944;2023-03-14T02:14:37;99393.28;;;-6.20;81.76
69980;BME280;57318;56.232;43.944;2023-03-14T02:17:04;99395.06;;;-6.24;82.06
69980;BME280;57318;56.232;43.944;2023-03-14T02:20:03;99397.69;;;-6.27;82.17
69980;BME280;57318;56.232;43.944;2023-03-14T02:22:34;99394.28;;;-6.32;81.96
69980;BME280;57318;56.232;43.944;2023-03-14T02:27:34;99398.63;;;-6.34;81.96
69980;BME280;57318;56.232;43.944;2023-03-14T02:30:06;99403.00;;;-6.39;82.16
69980;BME280;57318;56.232;43.944;2023-03-14T02:32:36;99402.16;;;-6.41;82.40
69980;BME280;57318;56.232;43.944;2023-03-14T02:35:24;99399.59;;;-6.43;82.45
69980;BME280;57318;56.232;43.944;2023-03-14T02:37:56;99403.09;;;-6.47;82.10
69980;BME280;57318;56.232;43.944;2023-03-14T02:40:23;99397.06;;;-6.47;82.12
69980;BME280;57318;56.232;43.944;2023-03-14T02:42:48;99403.16;;;-6.53;82.15
69980;BME280;57318;56.232;43.944;2023-03-14T02:47:43;99410.97;;;-6.58;82.50
69980;BME280;57318;56.232;43.944;2023-03-14T02:50:14;99405.81;;;-6.61;82.16
69980;BME280;57318;56.232;43.944;2023-03-14T02:52:41;99409.28;;;-6.63;82.40
69980;BME280;57318;56.232;43.944;2023-03-14T02:55:07;99408.41;;;-6.62;82.75
69980;BME280;57318;56.232;43.944;2023-03-14T02:57:34;99413.59;;;-6.62;82.59
69980;BME280;57318;56.232;43.944;2023-03-14T03:00:00;99414.44;;;-6.63;82.58
69980;BME280;57318;56.232;43.944;2023-03-14T03:02:27;99419.59;;;-6.62;82.71
69980;BME280;57318;56.232;43.944;2023-03-14T03:04:53;99417.03;;;-6.62;82.93
69980;BME280;57318;56.232;43.944;2023-03-14T03:07:18;99417.91;;;-6.63;82.72
69980;BME280;57318;56.232;43.944;2023-03-14T03:09:45;99421.31;;;-6.61;83.13
69980;BME280;57318;56.232;43.944;2023-03-14T03:12:10;99436.81;;;-6.58;82.96
69980;BME280;57318;56.232;43.944;2023-03-14T03:14:36;99434.19;;;-6.56;83.17
69980;BME280;57318;56.232;43.944;2023-03-14T03:17:06;99433.34;;;-6.57;82.72
69980;BME280;57318;56.232;43.944;2023-03-14T03:19:32;99431.63;;;-6.58;82.73
69980;BME280;57318;56.232;43.944;2023-03-14T03:21:58;99435.09;;;-6.60;82.72
69980;BME280;57318;56.232;43.944;2023-03-14T03:24:25;99430.81;;;-6.60;83.28
69980;BME280;57318;56.232;43.944;2023-03-14T03:26:51;99433.34;;;-6.57;82.94
69980;BME280;57318;56.232;43.944;2023-03-14T03:29:16;99430.78;;;-6.57;82.91
69980;BME280;57318;56.232;43.944;2023-03-14T03:31:42;99429.03;;;-6.56;82.72
69980;BME280;57318;56.232;43.944;2023-03-14T03:34:11;99431.63;;;-6.56;82.41
69980;BME280;57318;56.232;43.944;2023-03-14T03:36:36;99425.56;;;-6.54;82.67
69980;BME280;57318;56.232;43.944;2023-03-14T03:39:02;99422.97;;;-6.54;82.10
69980;BME280;57318;56.232;43.944;2023-03-14T03:41:29;99422.06;;;-6.51;82.20
69980;BME280;57318;56.232;43.944;2023-03-14T03:43:55;99429.81;;;-6.49;81.85
69980;BME280;57318;56.232;43.944;2023-03-14T03:46:20;99434.97;;;-6.48;82.02
69980;BME280;57318;56.232;43.944;2023-03-14T03:48:46;99432.38;;;-6.48;81.74
69980;BME280;57318;56.232;43.944;2023-03-14T03:51:15;99431.53;;;-6.47;82.03
69980;BME280;57318;56.232;43.944;2023-03-14T03:53:42;99429.78;;;-6.46;81.75
69980;BME280;57318;56.232;43.944;2023-03-14T03:56:08;99417.72;;;-6.44;81.83
69980;BME280;57318;56.232;43.944;2023-03-14T03:58:34;99425.34;;;-6.37;81.70
69980;BME280;57318;56.232;43.944;2023-03-14T04:01:02;99424.41;;;-6.28;81.47
69980;BME280;57318;56.232;43.944;2023-03-14T04:03:28;99410.53;;;-6.19;81.43
69980;BME280;57318;56.232;43.944;2023-03-14T04:06:02;99403.47;;;-6.08;80.81
69980;BME280;57318;56.232;43.944;2023-03-14T04:08:28;99399.78;;;-5.93;80.44
69980;BME280;57318;56.232;43.944;2023-03-14T04:10:58;99393.75;;;-5.93;79.76
69980;BME280;57318;56.232;43.944;2023-03-14T04:13:25;99385.09;;;-5.89;79.67
69980;BME280;57318;56.232;43.944;2023-03-14T04:15:52;99383.31;;;-5.86;79.43
69980;BME280;57318;56.232;43.944;2023-03-14T04:18:18;99372.00;;;-5.82;79.58
69980;BME280;57318;56.232;43.944;2023-03-14T04:20:44;99368.56;;;-5.81;79.57
69980;BME280;57318;56.232;43.944;2023-03-14T04:23:10;99378.81;;;-5.74;79.26
69980;BME280;57318;56.232;43.944;2023-03-14T04:25:35;99371.94;;;-5.75;79.16
69980;BME280;57318;56.232;43.944;2023-03-14T04:28:01;99378.75;;;-5.70;79.03
69980;BME280;57318;56.232;43.944;2023-03-14T04:30:28;99387.28;;;-5.63;78.69
69980;BME280;57318;56.232;43.944;2023-03-14T04:32:54;99393.16;;;-5.53;78.63
69980;BME280;57318;56.232;43.944;2023-03-14T04:35:19;99392.25;;;-5.49;78.17
69980;BME280;57318;56.232;43.944;2023-03-14T04:37:45;99406.81;;;-5.40;77.79
69980;BME280;57318;56.232;43.944;2023-03-14T04:40:14;99407.59;;;-5.37;77.35
69980;BME280;57318;56.232;43.944;2023-03-14T04:42:40;99417.09;;;-5.36;77.29
69980;BME280;57318;56.232;43.944;2023-03-14T04:45:06;99427.38;;;-5.31;76.84
69980;BME280;57318;56.232;43.944;2023-03-14T04:47:32;99428.97;;;-5.24;76.77
69980;BME280;57318;56.232;43.944;2023-03-14T04:49:58;99433.13;;;-5.14;76.32
69980;BME280;57318;56.232;43.944;2023-03-14T04:52:25;99428.47;;;-4.93;75.89
69980;BME280;57318;56.232;43.944;2023-03-14T04:54:51;99422.19;;;-4.80;75.16
69980;BME280;57318;56.232;43.944;2023-03-14T04:57:16;99421.09;;;-4.66;74.61
69980;BME280;57318;56.232;43.944;2023-03-14T04:59:42;99415.06;;;-4.68;74.36
69980;BME280;57318;56.232;43.944;2023-03-14T05:02:07;99408.03;;;-4.62;73.84
69980;BME280;57318;56.232;43.944;2023-03-14T05:04:33;99401.06;;;-4.58;73.33
69980;BME280;57318;56.232;43.944;2023-03-14T05:06:59;99390.59;;;-4.54;73.39
69980;BME280;57318;56.232;43.944;2023-03-14T05:09:25;99385.25;;;-4.46;73.25
69980;BME280;57318;56.232;43.944;2023-03-14T05:11:51;99402.59;;;-4.48;73.04
69980;BME280;57318;56.232;43.944;2023-03-14T05:14:17;99390.25;;;-4.35;72.67
69980;BME280;57318;56.232;43.944;2023-03-14T05:16:42;99392.59;;;-4.23;72.19
69980;BME280;57318;56.232;43.944;2023-03-14T05:19:08;99399.16;;;-4.06;71.62
69980;BME280;57318;56.232;43.944;2023-03-14T05:21:34;99391.06;;;-3.92;70.89
69980;BME280;57318;56.232;43.944;2023-03-14T05:23:59;99384.50;;;-3.70;70.08
69980;BME280;57318;56.232;43.944;2023-03-14T05:26:25;99389.94;;;-3.43;68.96
69980;BME280;57318;56.232;43.944;2023-03-14T05:28:50;99392.19;;;-3.28;67.79
69980;BME280;57318;56.232;43.944;2023-03-14T05:31:16;99383.53;;;-3.28;67.60
69980;BME280;57318;56.232;43.944;2023-03-14T05:33:42;99400.59;;;-3.18;66.72
69980;BME280;57318;56.232;43.944;2023-03-14T05:36:08;99394.19;;;-3.03;66.16
69980;BME280;57318;56.232;43.944;2023-03-14T05:38:33;99409.47;;;-2.91;65.95
69980;BME280;57318;56.232;43.944;2023-03-14T05:40:59;99411.66;;;-2.75;65.02
69980;BME280;57318;56.232;43.944;2023-03-14T05:43:24;99415.81;;;-2.68;64.50
69980;BME280;57318;56.232;43.944;2023-03-14T05:45:50;99398.31;;;-2.63;64.05
69980;BME280;57318;56.232;43.944;2023-03-14T05:48:16;99405.97;;;-2.57;63.63
69980;BME280;57318;56.232;43.944;2023-03-14T05:50:42;99402.47;;;-2.56;63.43
69980;BME280;57318;56.232;43.944;2023-03-14T05:53:08;99402.22;;;-2.46;62.49
69980;BME280;57318;56.232;43.944;2023-03-14T05:55:33;99396.75;;;-2.36;62.32
69980;BME280;57318;56.232;43.944;2023-03-14T05:57:59;99391.03;;;-2.19;61.56
69980;BME280;57318;56.232;43.944;2023-03-14T06:00:25;99377.66;;;-2.06;61.07
69980;BME280;57318;56.232;43.944;2023-03-14T06:02:50;99375.00;;;-2.05;61.24
69980;BME280;57318;56.232;43.944;2023-03-14T06:05:16;99375.44;;;-1.90;60.53
69980;BME280;57318;56.232;43.944;2023-03-14T06:07:42;99360.69;;;-1.90;59.41
69980;BME280;57318;56.232;43.944;2023-03-14T06:10:08;99357.63;;;-1.74;59.47
69980;BME280;57318;56.232;43.944;2023-03-14T06:12:34;99350.41;;;-1.66;58.61
69980;BME280;57318;56.232;43.944;2023-03-14T06:14:59;99345.50;;;-1.49;58.45
69980;BME280;57318;56.232;43.944;2023-03-14T06:17:25;99332.88;;;-1.34;57.58
69980;BME280;57318;56.232;43.944;2023-03-14T06:19:50;99328.06;;;-1.20;56.82
69980;BME280;57318;56.232;43.944;2023-03-14T06:22:16;99339.16;;;-1.13;56.42
69980;BME280;57318;56.232;43.944;2023-03-14T06:24:42;99316.88;;;-0.98;56.30
69980;BME280;57318;56.232;43.944;2023-03-14T06:27:07;99312.56;;;-0.99;55.79
69980;BME280;57318;56.232;43.944;2023-03-14T06:29:33;99315.19;;;-0.99;55.96
69980;BME280;57318;56.232;43.944;2023-03-14T06:31:59;99302.03;;;-0.96;55.56
69980;BME280;57318;56.232;43.944;2023-03-14T06:34:24;99305.66;;;-1.00;55.60
69980;BME280;57318;56.232;43.944;2023-03-14T06:36:51;99296.34;;;-1.07;56.31
69980;BME280;57318;56.232;43.944;2023-03-14T06:39:17;99303.38;;;-1.10;55.91
69980;BME280;57318;56.232;43.944;2023-03-14T06:41:43;99305.50;;;-1.21;56.29
69980;BME280;57318;56.232;43.944;2023-03-14T06:44:08;99310.47;;;-1.13;56.02
69980;BME280;57318;56.232;43.944;2023-03-14T06:46:34;99275.84;;;-1.18;56.42
69980;BME280;57318;56.232;43.944;2023-03-14T06:48:59;99301.09;;;-1.19;56.76
69980;BME280;57318;56.232;43.944;2023-03-14T06:51:25;99291.66;;;-1.23;56.62
69980;BME280;57318;56.232;43.944;2023-03-14T06:53:50;99279.09;;;-1.37;56.84
69980;BME280;57318;56.232;43.944;2023-03-14T06:56:16;99292.72;;;-1.29;57.14
69980;BME280;57318;56.232;43.944;2023-03-14T06:58:42;99260.63;;;-1.31;57.09
69980;BME280;57318;56.232;43.944;2023-03-14T07:01:28;99255.91;;;-1.44;57.73
69980;BME280;57318;56.232;43.944;2023-03-14T07:03:55;99245.25;;;-1.38;57.63
69980;BME280;57318;56.232;43.944;2023-03-14T07:06:21;99261.03;;;-1.41;57.39
69980;BME280;57318;56.232;43.944;2023-03-14T07:08:47;99260.72;;;-1.34;57.63
69980;BME280;57318;56.232;43.944;2023-03-14T07:11:13;99256.59;;;-1.39;57.81
69980;BME280;57318;56.232;43.944;2023-03-14T07:13:39;99263.72;;;-1.44;58.55
69980;BME280;57318;56.232;43.944;2023-03-14T07:16:05;99255.41;;;-1.56;59.82
69980;BME280;57318;56.232;43.944;2023-03-14T07:18:31;99245.78;;;-1.54;60.66
69980;BME280;57318;56.232;43.944;2023-03-14T07:20:57;99247.47;;;-1.53;61.46
69980;BME280;57318;56.232;43.944;2023-03-14T07:23:22;99263.22;;;-1.56;62.23
69980;BME280;57318;56.232;43.944;2023-03-14T07:25:48;99228.66;;;-1.61;62.38
69980;BME280;57318;56.232;43.944;2023-03-14T07:28:14;99250.38;;;-1.62;63.20
69980;BME280;57318;56.232;43.944;2023-03-14T07:30:39;99246.00;;;-1.60;63.91
69980;BME280;57318;56.232;43.944;2023-03-14T07:33:05;99232.94;;;-1.58;64.77
69980;BME280;57318;56.232;43.944;2023-03-14T07:35:30;99221.72;;;-1.62;65.47
69980;BME280;57318;56.232;43.944;2023-03-14T07:37:56;99217.94;;;-1.52;66.37
69980;BME280;57318;56.232;43.944;2023-03-14T07:40:21;99194.06;;;-1.39;67.00
69980;BME280;57318;56.232;43.944;2023-03-14T07:42:47;99172.72;;;-1.51;67.98
69980;BME280;57318;56.232;43.944;2023-03-14T07:45:13;99178.88;;;-1.53;68.89
69980;BME280;57318;56.232;43.944;2023-03-14T07:47:39;99195.91;;;-1.68;69.32
69980;BME280;57318;56.232;43.944;2023-03-14T07:50:05;99172.88;;;-1.80;70.48
69980;BME280;57318;56.232;43.944;2023-03-14T07:52:31;99174.88;;;-1.89;69.74
69980;BME280;57318;56.232;43.944;2023-03-14T07:54:56;99148.72;;;-1.86;70.31
69980;BME280;57318;56.232;43.944;2023-03-14T07:57:22;99171.97;;;-1.79;70.13
69980;BME280;57318;56.232;43.944;2023-03-14T07:59:49;99133.59;;;-1.74;69.57
69980;BME280;57318;56.232;43.944;2023-03-14T08:02:14;99145.34;;;-1.63;68.93
69980;BME280;57318;56.232;43.944;2023-03-14T08:04:40;99140.03;;;-1.59;68.55
69980;BME280;57318;56.232;43.944;2023-03-14T08:07:06;99131.03;;;-1.51;68.28
69980;BME280;57318;56.232;43.944;2023-03-14T08:09:32;99161.28;;;-1.47;67.72
69980;BME280;57318;56.232;43.944;2023-03-14T08:11:57;99123.00;;;-1.44;66.07
69980;BME280;57318;56.232;43.944;2023-03-14T08:14:23;99113.03;;;-1.33;66.11
69980;BME280;57318;56.232;43.944;2023-03-14T08:16:52;99119.69;;;-1.26;65.17
69980;BME280;57318;56.232;43.944;2023-03-14T08:19:17;99100.88;;;-1.11;64.14
69980;BME280;57318;56.232;43.944;2023-03-14T08:21:43;99107.91;;;-0.89;63.00
69980;BME280;57318;56.232;43.944;2023-03-14T08:24:08;99089.09;;;-0.75;61.44
69980;BME280;57318;56.232;43.944;2023-03-14T08:26:34;99079.81;;;-0.60;60.80
69980;BME280;57318;56.232;43.944;2023-03-14T08:29:00;99086.31;;;-0.48;59.72
69980;BME280;57318;56.232;43.944;2023-03-14T08:31:26;99060.91;;;-0.45;58.87
69980;BME280;57318;56.232;43.944;2023-03-14T08:33:52;99069.41;;;-0.40;58.38
69980;BME280;57318;56.232;43.944;2023-03-14T08:36:19;99062.38;;;-0.38;57.97
69980;BME280;57318;56.232;43.944;2023-03-14T08:38:45;99076.09;;;-0.32;57.82
69980;BME280;57318;56.232;43.944;2023-03-14T08:41:10;99063.88;;;-0.32;57.18
69980;BME280;57318;56.232;43.944;2023-03-14T08:43:36;99069.53;;;-0.22;57.12
69980;BME280;57318;56.232;43.944;2023-03-14T08:46:03;99058.19;;;-0.21;56.10
69980;BME280;57318;56.232;43.944;2023-03-14T08:48:29;99070.34;;;-0.20;56.14
69980;BME280;57318;56.232;43.944;2023-03-14T08:51:08;99067.06;;;-0.25;56.21
69980;BME280;57318;56.232;43.944;2023-03-14T08:53:34;99063.50;;;-0.23;55.80
69980;BME280;57318;56.232;43.944;2023-03-14T08:56:00;99046.78;;;-0.19;55.26
69980;BME280;57318;56.232;43.944;2023-03-14T08:58:25;99040.31;;;-0.10;55.28
69980;BME280;57318;56.232;43.944;2023-03-14T09:00:51;99043.66;;;-0.06;55.32
69980;BME280;57318;56.232;43.944;2023-03-14T09:03:17;99026.22;;;-0.06;55.16
69980;BME280;57318;56.232;43.944;2023-03-14T09:05:42;99012.88;;;0.01;55.26
69980;BME280;57318;56.232;43.944;2023-03-14T09:08:08;99026.72;;;0.03;54.99
69980;BME280;57318;56.232;43.944;2023-03-14T09:10:33;99004.22;;;0.00;55.56
69980;BME280;57318;56.232;43.944;2023-03-14T09:12:59;99028.63;;;-0.01;55.28
69980;BME280;57318;56.232;43.944;2023-03-14T09:15:25;99014.66;;;0.00;55.12
69980;BME280;57318;56.232;43.944;2023-03-14T09:17:51;99029.06;;;0.09;55.37
69980;BME280;57318;56.232;43.944;2023-03-14T09:20:17;99010.50;;;0.15;54.90
69980;BME280;57318;56.232;43.944;2023-03-14T09:22:43;99005.78;;;0.23;54.97
69980;BME280;57318;56.232;43.944;2023-03-14T09:25:09;99011.50;;;0.31;54.87
69980;BME280;57318;56.232;43.944;2023-03-14T09:27:35;99080.91;;;0.39;53.94
69980;BME280;57318;56.232;43.944;2023-03-14T09:30:01;99019.41;;;0.50;53.75
69980;BME280;57318;56.232;43.944;2023-03-14T09:32:27;99002.28;;;0.62;53.94
69980;BME280;57318;56.232;43.944;2023-03-14T09:34:53;99001.78;;;0.73;53.53
69980;BME280;57318;56.232;43.944;2023-03-14T09:37:19;99024.34;;;0.76;52.85
69980;BME280;57318;56.232;43.944;2023-03-14T09:39:45;98996.97;;;0.83;53.25
69980;BME280;57318;56.232;43.944;2023-03-14T09:42:14;99006.50;;;1.03;52.88
69980;BME280;57318;56.232;43.944;2023-03-14T09:44:57;99017.34;;;1.13;52.21
69980;BME280;57318;56.232;43.944;2023-03-14T09:47:24;99029.75;;;1.09;51.90
69980;BME280;57318;56.232;43.944;2023-03-14T09:49:51;99012.59;;;1.21;51.75
69980;BME280;57318;56.232;43.944;2023-03-14T09:52:28;99023.56;;;1.29;51.45
69980;BME280;57318;56.232;43.944;2023-03-14T09:55:01;99018.63;;;1.40;51.51
69980;BME280;57318;56.232;43.944;2023-03-14T09:57:29;99025.25;;;1.48;51.09
69980;BME280;57318;56.232;43.944;2023-03-14T09:59:58;99021.66;;;1.50;51.10
69980;BME280;57318;56.232;43.944;2023-03-14T10:02:34;99018.03;;;1.53;50.90
69980;BME280;57318;56.232;43.944;2023-03-14T10:05:00;99026.88;;;1.50;51.24
69980;BME280;57318;56.232;43.944;2023-03-14T10:07:31;99017.16;;;1.52;51.76
69980;BME280;57318;56.232;43.944;2023-03-14T10:09:58;99032.56;;;1.41;51.56
69980;BME280;57318;56.232;43.944;2023-03-14T10:12:32;99018.72;;;1.39;51.89
69980;BME280;57318;56.232;43.944;2023-03-14T10:15:03;99002.31;;;1.35;52.43
69980;BME280;57318;56.232;43.944;2023-03-14T10:17:41;98997.09;;;1.35;52.63
69980;BME280;57318;56.232;43.944;2023-03-14T10:20:27;99004.22;;;1.32;52.41
69980;BME280;57318;56.232;43.944;2023-03-14T10:22:58;98979.06;;;1.29;52.82
69980;BME280;57318;56.232;43.944;2023-03-14T10:25:29;98972.13;;;1.28;53.04
69980;BME280;57318;56.232;43.944;2023-03-14T10:27:55;98980.72;;;1.30;53.27
69980;BME280;57318;56.232;43.944;2023-03-14T10:30:45;98996.94;;;1.38;53.72
69980;BME280;57318;56.232;43.944;2023-03-14T10:33:27;98987.00;;;1.45;53.35
69980;BME280;57318;56.232;43.944;2023-03-14T10:35:55;98973.03;;;1.44;53.20
69980;BME280;57318;56.232;43.944;2023-03-14T10:38:23;98948.56;;;1.46;53.30
69980;BME280;57318;56.232;43.944;2023-03-14T10:40:51;98967.72;;;1.46;53.32
69980;BME280;57318;56.232;43.944;2023-03-14T10:43:33;98964.13;;;1.49;53.54
69980;BME280;57318;56.232;43.944;2023-03-14T10:46:09;98995.53;;;1.49;53.70
69980;BME280;57318;56.232;43.944;2023-03-14T10:48:38;98950.03;;;1.51;53.92
69980;BME280;57318;56.232;43.944;2023-03-14T10:51:10;98930.53;;;1.57;53.56
69980;BME280;57318;56.232;43.944;2023-03-14T10:53:42;98955.63;;;1.61;53.52
69980;BME280;57318;56.232;43.944;2023-03-14T10:56:14;98925.66;;;1.67;53.78
69980;BME280;57318;56.232;43.944;2023-03-14T10:58:43;98934.13;;;1.72;53.65
69980;BME280;57318;56.232;43.944;2023-03-14T11:03:39;98963.03;;;1.70;54.10
69980;BME280;57318;56.232;43.944;2023-03-14T11:12:39;98984.38;;;1.62;54.72
69980;BME280;57318;56.232;43.944;2023-03-14T11:15:35;98935.53;;;1.61;54.86
69980;BME280;57318;56.232;43.944;2023-03-14T11:21:13;98911.47;;;1.71;54.78
69980;BME280;57318;56.232;43.944;2023-03-14T11:29:30;98917.72;;;1.68;55.16
69980;BME280;57318;56.232;43.944;2023-03-14T11:32:02;98907.94;;;1.72;55.10
69980;BME280;57318;56.232;43.944;2023-03-14T11:34:39;98881.50;;;1.76;55.01
69980;BME280;57318;56.232;43.944;2023-03-14T11:37:25;98913.94;;;1.74;55.22
69980;BME280;57318;56.232;43.944;2023-03-14T11:40:18;98892.22;;;1.72;54.65
69980;BME280;57318;56.232;43.944;2023-03-14T11:42:47;98882.84;;;1.68;55.46
69980;BME280;57318;56.232;43.944;2023-03-14T11:45:25;98887.22;;;1.67;55.61
69980;BME280;57318;56.232;43.944;2023-03-14T11:48:17;98885.44;;;1.68;55.52
69980;BME280;57318;56.232;43.944;2023-03-14T11:50:43;98887.75;;;1.74;55.20
69980;BME280;57318;56.232;43.944;2023-03-14T11:53:14;98880.41;;;1.80;55.12
69980;BME280;57318;56.232;43.944;2023-03-14T11:55:42;98858.69;;;1.78;55.23
69980;BME280;57318;56.232;43.944;2023-03-14T11:58:21;98879.41;;;1.83;55.31
69980;BME280;57318;56.232;43.944;2023-03-14T12:00:50;98871.91;;;1.93;55.10
69980;BME280;57318;56.232;43.944;2023-03-14T12:03:27;98888.03;;;2.01;54.86
69980;BME280;57318;56.232;43.944;2023-03-14T12:13:52;98866.50;;;1.96;54.59
69980;BME280;57318;56.232;43.944;2023-03-14T12:18:53;98843.16;;;2.07;54.78
69980;BME280;57318;56.232;43.944;2023-03-14T12:21:20;98888.41;;;2.11;54.78
69980;BME280;57318;56.232;43.944;2023-03-14T12:23:55;98895.50;;;2.09;54.61
69980;BME280;57318;56.232;43.944;2023-03-14T12:26:26;98862.22;;;2.11;54.75
69980;BME280;57318;56.232;43.944;2023-03-14T12:34:03;98857.47;;;2.17;54.80
69980;BME280;57318;56.232;43.944;2023-03-14T12:50:21;98809.25;;;2.36;54.30
69980;BME280;57318;56.232;43.944;2023-03-14T12:56:00;98822.94;;;2.41;54.05
69980;BME280;57318;56.232;43.944;2023-03-14T13:01:01;98799.19;;;2.44;54.05
69980;BME280;57318;56.232;43.944;2023-03-14T13:03:39;98777.19;;;2.47;54.12
69980;BME280;57318;56.232;43.944;2023-03-14T13:06:08;98757.72;;;2.51;53.93
69980;BME280;57318;56.232;43.944;2023-03-14T13:08:42;98786.47;;;2.52;54.53
69980;BME280;57318;56.232;43.944;2023-03-14T13:11:21;98777.69;;;2.53;54.03
69980;BME280;57318;56.232;43.944;2023-03-14T13:13:49;98806.44;;;2.55;54.75
69980;BME280;57318;56.232;43.944;2023-03-14T13:16:20;98803.13;;;2.51;54.65
69980;BME280;57318;56.232;43.944;2023-03-14T13:19:32;98788.16;;;2.53;54.62
69980;BME280;57318;56.232;43.944;2023-03-14T13:21:36;98773.25;;;2.54;54.60
69980;BME280;57318;56.232;43.944;2023-03-14T13:24:06;98793.41;;;2.53;54.67
69980;BME280;57318;56.232;43.944;2023-03-14T13:26:38;98794.59;;;2.48;54.91
69980;BME280;57318;56.232;43.944;2023-03-14T13:29:25;98814.75;;;2.47;54.39
69980;BME280;57318;56.232;43.944;2023-03-14T13:31:56;98791.97;;;2.48;54.97
69980;BME280;57318;56.232;43.944;2023-03-14T13:34:32;98794.50;;;2.49;54.69
69980;BME280;57318;56.232;43.944;2023-03-14T13:36:59;98779.81;;;2.47;54.74
69980;BME280;57318;56.232;43.944;2023-03-14T13:39:26;98774.28;;;2.51;55.11
69980;BME280;57318;56.232;43.944;2023-03-14T13:41:58;98803.13;;;2.51;55.03
69980;BME280;57318;56.232;43.944;2023-03-14T13:44:34;98804.91;;;2.51;54.88
69980;BME280;57318;56.232;43.944;2023-03-14T13:47:03;98787.38;;;2.51;54.97
69980;BME280;57318;56.232;43.944;2023-03-14T13:49:33;98804.91;;;2.51;55.21
69980;BME280;57318;56.232;43.944;2023-03-14T13:52:01;98824.09;;;2.51;54.92
69980;BME280;57318;56.232;43.944;2023-03-14T13:54:27;98822.25;;;2.53;55.11
69980;BME280;57318;56.232;43.944;2023-03-14T13:57:01;98808.97;;;2.57;54.89
69980;BME280;57318;56.232;43.944;2023-03-14T13:59:32;98800.06;;;2.59;54.98